Portada
METAR-TAF:

METAR-TAF

Aeroports :

Khon Kaen, Tailàndia

latitud: 16-26N, longitud: 102-50E, altitud: 165 m

Observació

L'informe es va fer fa 1 hora i 44 minuts, a les 19:00 UTC
Vent 8 kt del Nord-Est
Temperatura 24°C
Humitat 74%
Pressió 1015 hPa
Visibilitat: 9000 m

METAR: VTUK 261900Z 05008KT 9000 NSC 24/19 Q1015 NOSIG

Hora: 03:44 (20:44 UTC)

Pronòstic

L'informe es va fer fa 3 hores i 44 minuts, a les 17:00 UTC
Pronòstic vàlid del 26 a les 18 UTC al 27 a les 18 UTC
Vent 5 kt del Est/Nord-Est
Visibilitat: 9000 m
Escasses núvols a una alçada de 3000 ft

TAF: VTUK 261700Z 2618/2718 06005KT 9000 FEW030

Observacions i pronòstics meteorològics de més de 4000 aeroports (METAR i TAF).

Les estacions disponibles són els punts grocs i vermells al mapa.

Posi el ratolí al punt desitjat per veure el nom de l'estació.

Feu clic per veure les observacions i els pronòstics meteorològics.

Per canviar el mapa: feu clic els botons verds amb una creu de color negre per apropar; al botó verd amb un guió per allunyar la imatge; o en les fletxes verdes per a mapes adjacents.


METAR-TAF: